Terminal Aerodrome Forecast
Issued by NWS

Home | Current Version | Previous Version | Text Only | Print | Product List | Glossary On
Versions: 1 2 3 4 5 6 7 8 9 10 11 12 13 14 15 16 17 18
000
FTUS42 KILM 242300
TAFCRE
TAF
KCRE 242327Z 2500/2524 23011KT 6SM -RA BR SCT004 OVC025
      TEMPO 2500/2503 2SM +RA BR BKN010
     FM250300 20012KT 4SM -RA BR SCT008 OVC015
     FM250900 26011G18KT 6SM -RA SCT007 BKN025
     FM251300 29010KT P6SM SCT050 BKN100
     FM251700 33006KT P6SM SKC=

USA.gov is the U.S. government's official web portal to all federal, state and local government web resources and services.